La Crescenta, California
Current Conditions -  °F | °C
As of 3:53 PM on Friday 24 Oct 2014 (Local Time) from KBUR Reporting Station
Clear Clear  
Wind Chill: 31°   Ceiling: Unl
Heat Index: 31°   Visibility: 10mi
Dew Point: -3°   Wind: 9mph
Humidity: 11%   Direction: 150°SSE
Pressure: 29.94"   Gusts: NA
Location:  34.22°N, 118.24°W
Report Text: KBUR 242253Z 15008KT 10SM CLR 31/M03 A2994 RMK AO2 SLP125 T03061033
Loading
Personal Weather Stations






























Interactive Weather Map
Tropical Storm Tracking
New forecast layout! Learn more

10-Day Weather Forecast

Advertisements
Track Severe Weather on mobile